Rice Lake, WI

5:15 AM CST on November 28, 2014 (GMT -0600)
Sawyer County | Change Station
CLOSE
Current Station
Airport
Location: Hayward,
Elevation: 1214 ft
Nearby Weather Stations
Active Advisory: Winter Weather Advisory

Elev 1214 ft 46.02 °N, 91.45 °W | Updated 22 minutes ago

Overcast
Overcast
7 °F
Feels Like -4 °F
N
7
Wind Variable Wind from East

Today
High -- | Low -- °F
--% Chance of Precip.
Yesterday
High -- | Low -- °F
Precip. -- in
7:23 AM 4:26 PM
Waxing Crescent, 39% visible
Pressure 30.22 in
Visibility 2.0 miles
Clouds Overcast 3700 ft
Windchill -4 °F
Dew Point 1 °F
Humidity 77%
Rainfall 0.00 in
Snow Depth Not available.
UV 0 out of 12
Pollen .10 out of 12
Air Quality Not available.
Flu Activity Not available.
METAR KHYR 281053Z AUTO 10006KT 2SM -SN OVC037 M14/M17 A3013 RMK AO2 SNB44 SLP234 P0000 T11391172

More Conditions Fewer Conditions

Pressure 30.22 in
Visibility 2.0 miles
Clouds Overcast 3700 ft
Windchill -4 °F
Dew Point 1 °F
Humidity 77%
Rainfall 0.00 in
Snow Depth Not available.
UV 0 out of 12
Pollen .10 out of 12
Air Quality Not available.
Flu Activity Not available.
METAR KHYR 281053Z AUTO 10006KT 2SM -SN OVC037 M14/M17 A3013 RMK AO2 SNB44 SLP234 P0000 T11391172

More Conditions Fewer Conditions

10-Day Weather Forecast

Almanac

Astronomy

Nov. 28, 2014 Rise Set
Actual Time
Civil Twilight
Nautical Twilight
Astronomical Twilight
Moon
Length of Visible Light
Length of Day
Tomorrow will be .
, % of the Moon is Illuminated

Today's Extremes

State Highs State Lows

Community

WunderPhotos

Upload Photos

1,774,192 photos uploaded!

WunderBlogs® & News

Nearby

Air Quality

  Air Quality AQ Index Pollutant
Not available.

Snow Depth

Station Depth Elevation

Earthquake Activity

City Distance Mag. Time & Date
Minimum magnitude displayed is 2.5.

Coastal Water Temperatures

Place Temperature

Nearby Weather Stations